Aeroporto :
LOGIN :

Iscrizione | Disclaimer

   EN    FR    IT 

 










Sommario :    VFR   VFR Marginale   IFR   IFR Intensivo   IFR Molto Intensivo
Visibilità : 
Base nubi : 
>= 8 km
>= 3000ft
5 / 8 km
1000 / 3000 ft
1500m / 5 km
500 / 1000 ft
800 / 1500m
200 / 500 ft
< 800m
< 200 ft
Simboli :   Temporali  Nebbia  Neve Forte  Precipitazioni Forti  Vento > 20 kt
SIGMETs :   Varie  Temporali  Ghiacco  Turbolenza  Onda orograficha  Ceneri Vulcaniche







- Altitudine del aeroporto : 266 ft
- Codice IATA : NCL
- Carte del aeroporto


EGNT - Newcastle

ULTIMO METAR :
  • 250450Z 26011KT 9999 FEW045 03/M00 Q1028

METARs OBSOLETI :
  • 250420Z 26009KT 9999 FEW040 03/M01 Q1027
  • 250350Z 27011KT 9999 FEW040 04/M01 Q1027
  • 250250Z 28011KT 9999 FEW040 04/M01 Q1026

TAF TAF EGNT
Valido dal 25 a 00 ore il 26 a 00 ore UTC


242300Z 2500/2524 28015KT 9999 SCT025
TEMPO 2500/2503 29018G28KT
BECMG 2509/2512 34008KT
ATIS : +44 191 214 3400
Nessun NOTAM noto per questo aeroporto.
1 SIGMET conosciuto per la FIR Scottish (EGPX) :
 
Turbolenza severa
EGPX SIGMET 01 VALID 250200/250600 EGRR
EGPX SCOTTISH FIR SEV TURB FCST WI N5700 E00500 - N5500 E00500 - N5500 W00040 - N5555 W00138 - N5740 E00353 - N5700 E00500 SFC/FL060 MOV SE 30KT NC=



MetMap, La meteo Aeronautica in un colpo d'occhio ! - Copyright ORBIFLY Dicembre 2007 - Disclaimer

ORBIFLY MET'MAP TEAM :

Programmazione e sviluppo : Alexandra Zaïnal
Concezione e sviluppo : Baudouin d'Aumeries
Co-Programmazione e sviluppo : Marc-Olivier Méhu
Supporto tecnico e logistico : Manuel Goepfert
Aiuto per la traduzione : Arnaldo La Scala

Contatto : metmap@orbifly.com




FONTI E CREDITI :

   NOAA